sensor_id;sensor_type;location;lat;lon;timestamp;P1;durP1;ratioP1;P2;durP2;ratioP2
19285;SDS011;9776;50.798;6.430;2023-05-07T00:01:46;5.65;;;4.18;;
19285;SDS011;9776;50.798;6.430;2023-05-07T00:04:14;12.68;;;9.63;;
19285;SDS011;9776;50.798;6.430;2023-05-07T00:06:41;11.70;;;7.90;;
19285;SDS011;9776;50.798;6.430;2023-05-07T00:09:07;12.50;;;7.38;;
19285;SDS011;9776;50.798;6.430;2023-05-07T00:11:34;4.57;;;3.55;;
19285;SDS011;9776;50.798;6.430;2023-05-07T00:14:01;3.78;;;2.80;;
19285;SDS011;9776;50.798;6.430;2023-05-07T00:16:27;6.85;;;3.08;;
19285;SDS011;9776;50.798;6.430;2023-05-07T00:18:54;4.18;;;2.90;;
19285;SDS011;9776;50.798;6.430;2023-05-07T00:21:22;4.18;;;2.65;;
19285;SDS011;9776;50.798;6.430;2023-05-07T00:23:51;4.97;;;2.42;;
19285;SDS011;9776;50.798;6.430;2023-05-07T00:26:18;4.05;;;2.67;;
19285;SDS011;9776;50.798;6.430;2023-05-07T00:28:45;3.28;;;2.60;;
19285;SDS011;9776;50.798;6.430;2023-05-07T00:31:12;3.67;;;2.53;;
19285;SDS011;9776;50.798;6.430;2023-05-07T00:33:38;3.78;;;2.60;;
19285;SDS011;9776;50.798;6.430;2023-05-07T00:36:05;4.88;;;2.70;;
19285;SDS011;9776;50.798;6.430;2023-05-07T00:38:33;3.30;;;2.38;;
19285;SDS011;9776;50.798;6.430;2023-05-07T00:41:00;4.05;;;2.60;;
19285;SDS011;9776;50.798;6.430;2023-05-07T00:43:27;3.92;;;2.40;;
19285;SDS011;9776;50.798;6.430;2023-05-07T00:45:54;3.28;;;2.58;;
19285;SDS011;9776;50.798;6.430;2023-05-07T00:48:21;5.75;;;2.63;;
19285;SDS011;9776;50.798;6.430;2023-05-07T00:50:49;4.60;;;2.70;;
19285;SDS011;9776;50.798;6.430;2023-05-07T00:53:16;3.28;;;2.33;;
19285;SDS011;9776;50.798;6.430;2023-05-07T00:55:44;3.90;;;2.30;;
19285;SDS011;9776;50.798;6.430;2023-05-07T00:58:11;3.45;;;2.47;;
19285;SDS011;9776;50.798;6.430;2023-05-07T01:00:37;2.85;;;2.50;;
19285;SDS011;9776;50.798;6.430;2023-05-07T01:03:04;3.80;;;2.35;;
19285;SDS011;9776;50.798;6.430;2023-05-07T01:05:31;3.20;;;2.58;;
19285;SDS011;9776;50.798;6.430;2023-05-07T01:07:58;3.72;;;2.72;;
19285;SDS011;9776;50.798;6.430;2023-05-07T01:10:26;3.63;;;2.40;;
19285;SDS011;9776;50.798;6.430;2023-05-07T01:12:57;3.67;;;2.67;;
19285;SDS011;9776;50.798;6.430;2023-05-07T01:15:25;3.55;;;2.63;;
19285;SDS011;9776;50.798;6.430;2023-05-07T01:17:52;3.55;;;2.25;;
19285;SDS011;9776;50.798;6.430;2023-05-07T01:20:18;3.03;;;2.28;;
19285;SDS011;9776;50.798;6.430;2023-05-07T01:22:46;2.63;;;2.00;;
19285;SDS011;9776;50.798;6.430;2023-05-07T01:25:13;4.03;;;2.40;;
19285;SDS011;9776;50.798;6.430;2023-05-07T01:27:41;2.78;;;2.03;;
19285;SDS011;9776;50.798;6.430;2023-05-07T01:30:08;2.63;;;2.22;;
19285;SDS011;9776;50.798;6.430;2023-05-07T01:32:36;3.92;;;2.28;;
19285;SDS011;9776;50.798;6.430;2023-05-07T01:35:07;4.60;;;2.30;;
19285;SDS011;9776;50.798;6.430;2023-05-07T01:37:37;2.90;;;2.08;;
19285;SDS011;9776;50.798;6.430;2023-05-07T01:40:06;2.90;;;2.10;;
19285;SDS011;9776;50.798;6.430;2023-05-07T01:42:34;4.40;;;2.25;;
19285;SDS011;9776;50.798;6.430;2023-05-07T01:45:02;2.38;;;1.95;;
19285;SDS011;9776;50.798;6.430;2023-05-07T01:47:28;2.92;;;2.20;;
19285;SDS011;9776;50.798;6.430;2023-05-07T01:49:56;2.83;;;2.25;;
19285;SDS011;9776;50.798;6.430;2023-05-07T01:52:23;4.13;;;2.40;;
19285;SDS011;9776;50.798;6.430;2023-05-07T01:54:50;3.10;;;2.40;;
19285;SDS011;9776;50.798;6.430;2023-05-07T01:57:18;3.03;;;2.35;;
19285;SDS011;9776;50.798;6.430;2023-05-07T01:59:45;2.97;;;2.33;;
19285;SDS011;9776;50.798;6.430;2023-05-07T02:02:11;3.60;;;2.53;;
19285;SDS011;9776;50.798;6.430;2023-05-07T02:04:38;3.90;;;2.20;;
19285;SDS011;9776;50.798;6.430;2023-05-07T02:07:05;3.30;;;2.30;;
19285;SDS011;9776;50.798;6.430;2023-05-07T02:09:31;3.67;;;2.47;;
19285;SDS011;9776;50.798;6.430;2023-05-07T02:11:58;4.47;;;2.55;;
19285;SDS011;9776;50.798;6.430;2023-05-07T02:14:26;3.75;;;2.72;;
19285;SDS011;9776;50.798;6.430;2023-05-07T02:16:52;3.35;;;2.72;;
19285;SDS011;9776;50.798;6.430;2023-05-07T02:19:19;4.32;;;2.78;;
19285;SDS011;9776;50.798;6.430;2023-05-07T02:21:46;4.22;;;2.90;;
19285;SDS011;9776;50.798;6.430;2023-05-07T02:24:13;2.95;;;2.63;;
19285;SDS011;9776;50.798;6.430;2023-05-07T02:26:39;4.18;;;2.45;;
19285;SDS011;9776;50.798;6.430;2023-05-07T02:29:06;6.40;;;2.50;;
19285;SDS011;9776;50.798;6.430;2023-05-07T02:31:34;3.00;;;2.70;;
19285;SDS011;9776;50.798;6.430;2023-05-07T02:34:01;3.00;;;2.53;;
19285;SDS011;9776;50.798;6.430;2023-05-07T02:36:27;2.90;;;2.42;;
19285;SDS011;9776;50.798;6.430;2023-05-07T02:38:54;3.47;;;2.47;;
19285;SDS011;9776;50.798;6.430;2023-05-07T02:41:20;4.10;;;2.80;;
19285;SDS011;9776;50.798;6.430;2023-05-07T02:43:47;3.30;;;2.58;;
19285;SDS011;9776;50.798;6.430;2023-05-07T02:46:14;3.50;;;2.70;;
19285;SDS011;9776;50.798;6.430;2023-05-07T02:48:42;3.22;;;2.50;;
19285;SDS011;9776;50.798;6.430;2023-05-07T02:51:08;3.10;;;2.60;;
19285;SDS011;9776;50.798;6.430;2023-05-07T02:53:35;3.65;;;2.50;;
19285;SDS011;9776;50.798;6.430;2023-05-07T02:56:02;4.47;;;2.22;;
19285;SDS011;9776;50.798;6.430;2023-05-07T02:58:29;3.05;;;2.40;;
19285;SDS011;9776;50.798;6.430;2023-05-07T03:00:55;2.45;;;2.10;;
19285;SDS011;9776;50.798;6.430;2023-05-07T03:03:22;2.50;;;2.00;;
19285;SDS011;9776;50.798;6.430;2023-05-07T03:05:50;3.50;;;2.03;;
19285;SDS011;9776;50.798;6.430;2023-05-07T03:08:17;3.45;;;2.40;;
19285;SDS011;9776;50.798;6.430;2023-05-07T03:10:43;3.92;;;2.47;;
19285;SDS011;9776;50.798;6.430;2023-05-07T03:13:10;4.03;;;1.92;;
19285;SDS011;9776;50.798;6.430;2023-05-07T03:15:37;3.33;;;2.28;;
19285;SDS011;9776;50.798;6.430;2023-05-07T03:18:03;3.65;;;2.15;;
19285;SDS011;9776;50.798;6.430;2023-05-07T03:20:30;3.88;;;2.40;;
19285;SDS011;9776;50.798;6.430;2023-05-07T03:22:58;4.78;;;2.20;;
19285;SDS011;9776;50.798;6.430;2023-05-07T03:25:25;4.35;;;2.40;;
19285;SDS011;9776;50.798;6.430;2023-05-07T03:27:51;2.88;;;2.40;;
19285;SDS011;9776;50.798;6.430;2023-05-07T03:30:18;4.55;;;2.13;;
19285;SDS011;9776;50.798;6.430;2023-05-07T03:32:45;3.65;;;2.15;;
19285;SDS011;9776;50.798;6.430;2023-05-07T03:35:11;3.28;;;2.30;;
19285;SDS011;9776;50.798;6.430;2023-05-07T03:37:38;3.85;;;2.50;;
19285;SDS011;9776;50.798;6.430;2023-05-07T03:40:07;4.38;;;2.67;;
19285;SDS011;9776;50.798;6.430;2023-05-07T03:42:35;3.25;;;2.70;;
19285;SDS011;9776;50.798;6.430;2023-05-07T03:45:02;3.00;;;2.30;;
19285;SDS011;9776;50.798;6.430;2023-05-07T03:47:29;3.33;;;2.53;;
19285;SDS011;9776;50.798;6.430;2023-05-07T03:49:55;3.00;;;2.40;;
19285;SDS011;9776;50.798;6.430;2023-05-07T03:52:23;4.55;;;2.60;;
19285;SDS011;9776;50.798;6.430;2023-05-07T03:54:51;4.50;;;2.42;;
19285;SDS011;9776;50.798;6.430;2023-05-07T03:57:19;4.10;;;2.35;;
19285;SDS011;9776;50.798;6.430;2023-05-07T03:59:46;2.28;;;2.00;;
19285;SDS011;9776;50.798;6.430;2023-05-07T04:02:12;3.05;;;1.98;;
19285;SDS011;9776;50.798;6.430;2023-05-07T04:04:39;3.55;;;2.17;;
19285;SDS011;9776;50.798;6.430;2023-05-07T04:07:06;3.00;;;2.22;;
19285;SDS011;9776;50.798;6.430;2023-05-07T04:09:32;2.67;;;2.28;;
19285;SDS011;9776;50.798;6.430;2023-05-07T04:11:59;5.10;;;1.90;;
19285;SDS011;9776;50.798;6.430;2023-05-07T04:14:27;3.03;;;2.20;;
19285;SDS011;9776;50.798;6.430;2023-05-07T04:16:55;3.33;;;2.20;;
19285;SDS011;9776;50.798;6.430;2023-05-07T04:19:22;5.35;;;2.45;;
19285;SDS011;9776;50.798;6.430;2023-05-07T04:21:48;3.13;;;2.50;;
19285;SDS011;9776;50.798;6.430;2023-05-07T04:24:15;2.75;;;2.42;;
19285;SDS011;9776;50.798;6.430;2023-05-07T04:26:41;3.63;;;2.63;;
19285;SDS011;9776;50.798;6.430;2023-05-07T04:29:08;3.28;;;2.88;;
19285;SDS011;9776;50.798;6.430;2023-05-07T04:31:36;4.63;;;2.95;;
19285;SDS011;9776;50.798;6.430;2023-05-07T04:34:03;5.03;;;3.00;;
19285;SDS011;9776;50.798;6.430;2023-05-07T04:36:30;4.88;;;2.78;;
19285;SDS011;9776;50.798;6.430;2023-05-07T04:38:58;3.67;;;2.63;;
19285;SDS011;9776;50.798;6.430;2023-05-07T04:41:24;6.25;;;3.30;;
19285;SDS011;9776;50.798;6.430;2023-05-07T04:43:51;3.95;;;2.60;;
19285;SDS011;9776;50.798;6.430;2023-05-07T04:46:18;5.68;;;2.75;;
19285;SDS011;9776;50.798;6.430;2023-05-07T04:48:46;4.93;;;2.60;;
19285;SDS011;9776;50.798;6.430;2023-05-07T04:51:12;4.65;;;2.53;;
19285;SDS011;9776;50.798;6.430;2023-05-07T04:53:39;4.50;;;2.72;;
19285;SDS011;9776;50.798;6.430;2023-05-07T04:56:06;3.47;;;2.85;;
19285;SDS011;9776;50.798;6.430;2023-05-07T04:58:32;3.55;;;2.70;;
19285;SDS011;9776;50.798;6.430;2023-05-07T05:00:59;2.70;;;2.30;;
19285;SDS011;9776;50.798;6.430;2023-05-07T05:03:26;3.70;;;2.97;;
19285;SDS011;9776;50.798;6.430;2023-05-07T05:05:54;3.85;;;3.05;;
19285;SDS011;9776;50.798;6.430;2023-05-07T05:08:24;4.72;;;2.90;;
19285;SDS011;9776;50.798;6.430;2023-05-07T05:10:50;3.30;;;2.75;;
19285;SDS011;9776;50.798;6.430;2023-05-07T05:13:17;3.50;;;2.72;;
19285;SDS011;9776;50.798;6.430;2023-05-07T05:15:44;2.95;;;2.60;;
19285;SDS011;9776;50.798;6.430;2023-05-07T05:18:10;5.43;;;2.47;;
19285;SDS011;9776;50.798;6.430;2023-05-07T05:20:37;3.20;;;2.90;;
19285;SDS011;9776;50.798;6.430;2023-05-07T05:23:05;5.00;;;2.90;;
19285;SDS011;9776;50.798;6.430;2023-05-07T05:25:32;2.85;;;2.55;;
19285;SDS011;9776;50.798;6.430;2023-05-07T05:27:58;4.63;;;2.50;;
19285;SDS011;9776;50.798;6.430;2023-05-07T05:30:25;6.50;;;2.60;;
19285;SDS011;9776;50.798;6.430;2023-05-07T05:32:51;3.13;;;2.50;;
19285;SDS011;9776;50.798;6.430;2023-05-07T05:35:18;3.08;;;2.63;;
19285;SDS011;9776;50.798;6.430;2023-05-07T05:37:45;3.78;;;2.70;;
19285;SDS011;9776;50.798;6.430;2023-05-07T05:40:13;3.78;;;2.95;;
19285;SDS011;9776;50.798;6.430;2023-05-07T05:42:39;4.78;;;2.95;;
19285;SDS011;9776;50.798;6.430;2023-05-07T05:45:06;3.40;;;2.75;;
19285;SDS011;9776;50.798;6.430;2023-05-07T05:47:34;4.15;;;2.90;;
19285;SDS011;9776;50.798;6.430;2023-05-07T05:50:01;3.75;;;3.00;;
19285;SDS011;9776;50.798;6.430;2023-05-07T05:52:27;3.83;;;2.88;;
19285;SDS011;9776;50.798;6.430;2023-05-07T05:54:54;3.70;;;2.72;;
19285;SDS011;9776;50.798;6.430;2023-05-07T05:57:22;4.13;;;2.40;;
19285;SDS011;9776;50.798;6.430;2023-05-07T05:59:49;3.53;;;2.50;;
19285;SDS011;9776;50.798;6.430;2023-05-07T06:02:15;3.33;;;2.60;;
19285;SDS011;9776;50.798;6.430;2023-05-07T06:04:42;3.13;;;2.67;;
19285;SDS011;9776;50.798;6.430;2023-05-07T06:07:09;4.88;;;2.63;;
19285;SDS011;9776;50.798;6.430;2023-05-07T06:09:35;3.20;;;2.55;;
19285;SDS011;9776;50.798;6.430;2023-05-07T06:12:02;3.10;;;2.50;;
19285;SDS011;9776;50.798;6.430;2023-05-07T06:14:30;4.13;;;2.45;;
19285;SDS011;9776;50.798;6.430;2023-05-07T06:16:57;3.28;;;2.63;;
19285;SDS011;9776;50.798;6.430;2023-05-07T06:19:23;3.63;;;2.58;;
19285;SDS011;9776;50.798;6.430;2023-05-07T06:21:51;3.28;;;2.60;;
19285;SDS011;9776;50.798;6.430;2023-05-07T06:24:18;4.97;;;2.25;;
19285;SDS011;9776;50.798;6.430;2023-05-07T06:26:45;3.55;;;2.65;;
19285;SDS011;9776;50.798;6.430;2023-05-07T06:29:11;3.38;;;2.20;;
19285;SDS011;9776;50.798;6.430;2023-05-07T06:31:39;4.05;;;2.30;;
19285;SDS011;9776;50.798;6.430;2023-05-07T06:34:06;2.80;;;2.22;;
19285;SDS011;9776;50.798;6.430;2023-05-07T06:36:33;4.38;;;2.30;;
19285;SDS011;9776;50.798;6.430;2023-05-07T06:39:00;4.85;;;2.38;;
19285;SDS011;9776;50.798;6.430;2023-05-07T06:41:27;3.90;;;1.95;;
19285;SDS011;9776;50.798;6.430;2023-05-07T06:43:53;4.22;;;2.40;;
19285;SDS011;9776;50.798;6.430;2023-05-07T06:46:20;3.00;;;2.28;;
19285;SDS011;9776;50.798;6.430;2023-05-07T06:48:48;3.22;;;2.10;;
19285;SDS011;9776;50.798;6.430;2023-05-07T06:51:14;2.33;;;1.80;;
19285;SDS011;9776;50.798;6.430;2023-05-07T06:53:41;3.83;;;2.38;;
19285;SDS011;9776;50.798;6.430;2023-05-07T06:56:08;4.35;;;1.95;;
19285;SDS011;9776;50.798;6.430;2023-05-07T06:58:34;4.50;;;2.33;;
19285;SDS011;9776;50.798;6.430;2023-05-07T07:01:01;3.38;;;2.22;;
19285;SDS011;9776;50.798;6.430;2023-05-07T07:03:28;4.30;;;2.30;;
19285;SDS011;9776;50.798;6.430;2023-05-07T07:05:56;5.43;;;2.25;;
19285;SDS011;9776;50.798;6.430;2023-05-07T07:08:22;3.05;;;2.00;;
19285;SDS011;9776;50.798;6.430;2023-05-07T07:10:49;4.88;;;2.45;;
19285;SDS011;9776;50.798;6.430;2023-05-07T07:13:15;3.63;;;2.30;;
19285;SDS011;9776;50.798;6.430;2023-05-07T07:15:42;3.50;;;2.38;;
19285;SDS011;9776;50.798;6.430;2023-05-07T07:18:10;3.58;;;1.90;;
19285;SDS011;9776;50.798;6.430;2023-05-07T07:20:36;3.72;;;1.88;;
19285;SDS011;9776;50.798;6.430;2023-05-07T07:23:04;2.08;;;1.50;;
19285;SDS011;9776;50.798;6.430;2023-05-07T07:25:31;1.70;;;1.50;;
19285;SDS011;9776;50.798;6.430;2023-05-07T07:27:58;3.13;;;1.63;;
19285;SDS011;9776;50.798;6.430;2023-05-07T07:30:24;4.70;;;1.80;;
19285;SDS011;9776;50.798;6.430;2023-05-07T07:32:51;3.80;;;1.98;;
19285;SDS011;9776;50.798;6.430;2023-05-07T07:35:18;1.95;;;1.48;;
19285;SDS011;9776;50.798;6.430;2023-05-07T07:37:45;2.20;;;1.73;;
19285;SDS011;9776;50.798;6.430;2023-05-07T07:40:13;2.20;;;1.45;;
19285;SDS011;9776;50.798;6.430;2023-05-07T07:42:40;2.72;;;1.95;;
19285;SDS011;9776;50.798;6.430;2023-05-07T07:45:07;2.28;;;1.60;;
19285;SDS011;9776;50.798;6.430;2023-05-07T07:47:34;4.25;;;2.00;;
19285;SDS011;9776;50.798;6.430;2023-05-07T07:50:01;3.55;;;2.10;;
19285;SDS011;9776;50.798;6.430;2023-05-07T07:52:28;5.05;;;1.73;;
19285;SDS011;9776;50.798;6.430;2023-05-07T07:54:54;2.47;;;1.83;;
19285;SDS011;9776;50.798;6.430;2023-05-07T07:57:23;3.03;;;1.42;;
19285;SDS011;9776;50.798;6.430;2023-05-07T07:59:49;2.22;;;1.58;;
19285;SDS011;9776;50.798;6.430;2023-05-07T08:02:16;4.07;;;1.77;;
19285;SDS011;9776;50.798;6.430;2023-05-07T08:04:43;3.85;;;1.70;;
19285;SDS011;9776;50.798;6.430;2023-05-07T08:07:10;2.50;;;1.50;;
19285;SDS011;9776;50.798;6.430;2023-05-07T08:09:37;1.98;;;1.50;;
19285;SDS011;9776;50.798;6.430;2023-05-07T08:12:05;2.60;;;1.80;;
19285;SDS011;9776;50.798;6.430;2023-05-07T08:14:33;2.95;;;1.60;;
19285;SDS011;9776;50.798;6.430;2023-05-07T08:17:01;2.67;;;1.52;;
19285;SDS011;9776;50.798;6.430;2023-05-07T08:19:28;2.63;;;1.48;;
19285;SDS011;9776;50.798;6.430;2023-05-07T08:21:55;1.77;;;1.40;;
19285;SDS011;9776;50.798;6.430;2023-05-07T08:24:21;3.53;;;1.40;;
19285;SDS011;9776;50.798;6.430;2023-05-07T08:26:48;1.90;;;1.27;;
19285;SDS011;9776;50.798;6.430;2023-05-07T08:29:15;3.33;;;1.50;;
19285;SDS011;9776;50.798;6.430;2023-05-07T08:31:43;1.67;;;1.30;;
19285;SDS011;9776;50.798;6.430;2023-05-07T08:34:09;2.10;;;1.42;;
19285;SDS011;9776;50.798;6.430;2023-05-07T08:36:36;2.90;;;1.33;;
19285;SDS011;9776;50.798;6.430;2023-05-07T08:39:03;1.58;;;1.23;;
19285;SDS011;9776;50.798;6.430;2023-05-07T08:41:29;2.13;;;1.30;;
19285;SDS011;9776;50.798;6.430;2023-05-07T08:43:57;1.83;;;1.30;;
19285;SDS011;9776;50.798;6.430;2023-05-07T08:46:25;2.40;;;1.27;;
19285;SDS011;9776;50.798;6.430;2023-05-07T08:48:56;1.75;;;1.10;;
19285;SDS011;9776;50.798;6.430;2023-05-07T08:51:23;2.50;;;1.50;;
19285;SDS011;9776;50.798;6.430;2023-05-07T08:53:50;3.15;;;1.10;;
19285;SDS011;9776;50.798;6.430;2023-05-07T08:56:17;3.63;;;1.42;;
19285;SDS011;9776;50.798;6.430;2023-05-07T08:58:45;4.78;;;1.50;;
19285;SDS011;9776;50.798;6.430;2023-05-07T09:01:13;2.70;;;1.55;;
19285;SDS011;9776;50.798;6.430;2023-05-07T09:03:40;4.47;;;1.42;;
19285;SDS011;9776;50.798;6.430;2023-05-07T09:06:09;2.03;;;1.30;;
19285;SDS011;9776;50.798;6.430;2023-05-07T09:08:36;2.30;;;1.67;;
19285;SDS011;9776;50.798;6.430;2023-05-07T09:11:03;2.17;;;1.30;;
19285;SDS011;9776;50.798;6.430;2023-05-07T09:13:30;2.38;;;1.30;;
19285;SDS011;9776;50.798;6.430;2023-05-07T09:15:57;2.47;;;1.48;;
19285;SDS011;9776;50.798;6.430;2023-05-07T09:18:23;3.05;;;1.40;;
19285;SDS011;9776;50.798;6.430;2023-05-07T09:20:51;2.17;;;1.42;;
19285;SDS011;9776;50.798;6.430;2023-05-07T09:23:19;1.92;;;1.30;;
19285;SDS011;9776;50.798;6.430;2023-05-07T09:25:46;3.00;;;1.63;;
19285;SDS011;9776;50.798;6.430;2023-05-07T09:28:13;2.47;;;1.58;;
19285;SDS011;9776;50.798;6.430;2023-05-07T09:30:39;2.33;;;1.70;;
19285;SDS011;9776;50.798;6.430;2023-05-07T09:33:06;2.63;;;1.95;;
19285;SDS011;9776;50.798;6.430;2023-05-07T09:35:33;4.03;;;1.52;;
19285;SDS011;9776;50.798;6.430;2023-05-07T09:38:00;3.72;;;1.60;;
19285;SDS011;9776;50.798;6.430;2023-05-07T09:40:29;3.38;;;1.48;;
19285;SDS011;9776;50.798;6.430;2023-05-07T09:43:01;2.15;;;1.40;;
19285;SDS011;9776;50.798;6.430;2023-05-07T09:45:35;2.10;;;1.40;;
19285;SDS011;9776;50.798;6.430;2023-05-07T09:48:03;2.85;;;1.58;;
19285;SDS011;9776;50.798;6.430;2023-05-07T09:50:32;2.83;;;1.48;;
19285;SDS011;9776;50.798;6.430;2023-05-07T09:53:03;1.98;;;1.40;;
19285;SDS011;9776;50.798;6.430;2023-05-07T09:55:31;2.25;;;1.30;;
19285;SDS011;9776;50.798;6.430;2023-05-07T09:57:58;3.78;;;1.23;;
19285;SDS011;9776;50.798;6.430;2023-05-07T10:00:27;3.00;;;1.50;;
19285;SDS011;9776;50.798;6.430;2023-05-07T10:02:56;2.47;;;1.10;;
19285;SDS011;9776;50.798;6.430;2023-05-07T10:05:24;2.42;;;1.58;;
19285;SDS011;9776;50.798;6.430;2023-05-07T10:07:52;2.38;;;1.60;;
19285;SDS011;9776;50.798;6.430;2023-05-07T10:10:19;2.22;;;1.42;;
19285;SDS011;9776;50.798;6.430;2023-05-07T10:12:47;4.85;;;1.10;;
19285;SDS011;9776;50.798;6.430;2023-05-07T10:15:15;3.00;;;1.88;;
19285;SDS011;9776;50.798;6.430;2023-05-07T10:17:42;1.70;;;1.17;;
19285;SDS011;9776;50.798;6.430;2023-05-07T10:20:10;3.15;;;1.13;;
19285;SDS011;9776;50.798;6.430;2023-05-07T10:22:37;3.38;;;1.27;;
19285;SDS011;9776;50.798;6.430;2023-05-07T10:25:09;3.47;;;1.30;;
19285;SDS011;9776;50.798;6.430;2023-05-07T10:27:42;1.73;;;1.40;;
19285;SDS011;9776;50.798;6.430;2023-05-07T10:30:14;1.70;;;1.00;;
19285;SDS011;9776;50.798;6.430;2023-05-07T10:32:49;1.70;;;1.00;;
19285;SDS011;9776;50.798;6.430;2023-05-07T10:35:20;4.15;;;1.00;;
19285;SDS011;9776;50.798;6.430;2023-05-07T10:37:49;2.08;;;1.10;;
19285;SDS011;9776;50.798;6.430;2023-05-07T10:40:16;1.20;;;1.08;;
19285;SDS011;9776;50.798;6.430;2023-05-07T10:42:54;1.98;;;1.00;;
19285;SDS011;9776;50.798;6.430;2023-05-07T10:45:23;2.00;;;1.25;;
19285;SDS011;9776;50.798;6.430;2023-05-07T10:48:10;2.15;;;1.30;;
19285;SDS011;9776;50.798;6.430;2023-05-07T10:50:38;2.38;;;1.40;;
19285;SDS011;9776;50.798;6.430;2023-05-07T10:53:21;3.25;;;1.40;;
19285;SDS011;9776;50.798;6.430;2023-05-07T10:55:51;1.85;;;1.48;;
19285;SDS011;9776;50.798;6.430;2023-05-07T10:58:38;1.70;;;1.20;;
19285;SDS011;9776;50.798;6.430;2023-05-07T11:01:06;2.67;;;1.60;;
19285;SDS011;9776;50.798;6.430;2023-05-07T11:03:33;2.35;;;1.35;;
19285;SDS011;9776;50.798;6.430;2023-05-07T11:06:10;2.67;;;1.92;;
19285;SDS011;9776;50.798;6.430;2023-05-07T11:08:53;4.22;;;2.70;;
19285;SDS011;9776;50.798;6.430;2023-05-07T11:14:11;2.55;;;1.77;;
19285;SDS011;9776;50.798;6.430;2023-05-07T11:16:39;3.00;;;1.50;;
19285;SDS011;9776;50.798;6.430;2023-05-07T11:19:07;2.95;;;1.60;;
19285;SDS011;9776;50.798;6.430;2023-05-07T11:21:34;5.88;;;1.90;;
19285;SDS011;9776;50.798;6.430;2023-05-07T11:24:02;5.88;;;1.90;;
19285;SDS011;9776;50.798;6.430;2023-05-07T11:26:30;2.60;;;1.90;;
19285;SDS011;9776;50.798;6.430;2023-05-07T11:29:09;5.10;;;1.80;;
19285;SDS011;9776;50.798;6.430;2023-05-07T11:31:37;3.40;;;2.00;;
19285;SDS011;9776;50.798;6.430;2023-05-07T11:34:05;5.93;;;2.78;;
19285;SDS011;9776;50.798;6.430;2023-05-07T11:36:33;2.85;;;2.47;;
19285;SDS011;9776;50.798;6.430;2023-05-07T11:39:00;5.07;;;2.38;;
19285;SDS011;9776;50.798;6.430;2023-05-07T11:41:33;3.50;;;2.25;;
19285;SDS011;9776;50.798;6.430;2023-05-07T11:44:00;3.17;;;2.13;;
19285;SDS011;9776;50.798;6.430;2023-05-07T11:46:28;3.85;;;2.40;;
19285;SDS011;9776;50.798;6.430;2023-05-07T11:48:55;4.38;;;2.78;;
19285;SDS011;9776;50.798;6.430;2023-05-07T11:51:23;5.10;;;3.30;;
19285;SDS011;9776;50.798;6.430;2023-05-07T11:53:52;3.83;;;2.97;;
19285;SDS011;9776;50.798;6.430;2023-05-07T11:56:19;3.75;;;2.80;;
19285;SDS011;9776;50.798;6.430;2023-05-07T11:58:48;5.07;;;3.00;;
19285;SDS011;9776;50.798;6.430;2023-05-07T12:01:17;5.18;;;3.00;;
19285;SDS011;9776;50.798;6.430;2023-05-07T12:03:44;3.95;;;2.75;;
19285;SDS011;9776;50.798;6.430;2023-05-07T12:06:11;6.13;;;2.78;;
19285;SDS011;9776;50.798;6.430;2023-05-07T12:08:41;5.47;;;2.95;;
19285;SDS011;9776;50.798;6.430;2023-05-07T12:11:08;3.03;;;2.50;;
19285;SDS011;9776;50.798;6.430;2023-05-07T12:13:36;3.10;;;2.35;;
19285;SDS011;9776;50.798;6.430;2023-05-07T12:16:03;4.50;;;2.38;;
19285;SDS011;9776;50.798;6.430;2023-05-07T12:18:32;2.80;;;1.70;;
19285;SDS011;9776;50.798;6.430;2023-05-07T12:21:00;2.22;;;1.80;;
19285;SDS011;9776;50.798;6.430;2023-05-07T12:23:26;2.35;;;1.52;;
19285;SDS011;9776;50.798;6.430;2023-05-07T12:25:55;5.80;;;1.92;;
19285;SDS011;9776;50.798;6.430;2023-05-07T12:28:22;1.90;;;1.20;;
19285;SDS011;9776;50.798;6.430;2023-05-07T12:30:49;2.50;;;1.40;;
19285;SDS011;9776;50.798;6.430;2023-05-07T12:33:18;2.67;;;1.33;;
19285;SDS011;9776;50.798;6.430;2023-05-07T12:35:46;3.00;;;1.42;;
19285;SDS011;9776;50.798;6.430;2023-05-07T12:38:14;1.60;;;1.10;;
19285;SDS011;9776;50.798;6.430;2023-05-07T12:40:42;2.35;;;1.10;;
19285;SDS011;9776;50.798;6.430;2023-05-07T12:43:16;2.85;;;1.33;;
19285;SDS011;9776;50.798;6.430;2023-05-07T12:45:43;5.70;;;1.83;;
19285;SDS011;9776;50.798;6.430;2023-05-07T12:48:11;2.70;;;1.60;;
19285;SDS011;9776;50.798;6.430;2023-05-07T12:50:38;2.50;;;1.20;;
19285;SDS011;9776;50.798;6.430;2023-05-07T12:53:05;3.25;;;1.42;;
19285;SDS011;9776;50.798;6.430;2023-05-07T12:55:40;2.17;;;1.30;;
19285;SDS011;9776;50.798;6.430;2023-05-07T12:58:07;1.90;;;1.30;;
19285;SDS011;9776;50.798;6.430;2023-05-07T13:00:36;3.42;;;2.42;;
19285;SDS011;9776;50.798;6.430;2023-05-07T13:03:04;4.25;;;2.50;;
19285;SDS011;9776;50.798;6.430;2023-05-07T13:05:30;3.28;;;2.33;;
19285;SDS011;9776;50.798;6.430;2023-05-07T13:07:58;3.45;;;2.10;;
19285;SDS011;9776;50.798;6.430;2023-05-07T13:10:25;4.10;;;1.70;;
19285;SDS011;9776;50.798;6.430;2023-05-07T13:12:51;2.22;;;1.35;;
19285;SDS011;9776;50.798;6.430;2023-05-07T13:15:18;1.77;;;1.10;;
19285;SDS011;9776;50.798;6.430;2023-05-07T13:17:47;2.53;;;2.10;;
19285;SDS011;9776;50.798;6.430;2023-05-07T13:20:13;12.23;;;9.73;;
19285;SDS011;9776;50.798;6.430;2023-05-07T13:22:40;2.35;;;1.85;;
19285;SDS011;9776;50.798;6.430;2023-05-07T13:25:07;7.00;;;3.50;;
19285;SDS011;9776;50.798;6.430;2023-05-07T13:27:34;3.47;;;2.85;;
19285;SDS011;9776;50.798;6.430;2023-05-07T13:30:02;12.55;;;9.30;;
19285;SDS011;9776;50.798;6.430;2023-05-07T13:32:29;14.27;;;11.00;;
19285;SDS011;9776;50.798;6.430;2023-05-07T13:34:57;6.90;;;4.18;;
19285;SDS011;9776;50.798;6.430;2023-05-07T13:37:24;5.45;;;4.55;;
19285;SDS011;9776;50.798;6.430;2023-05-07T13:39:51;5.00;;;3.65;;
19285;SDS011;9776;50.798;6.430;2023-05-07T13:42:17;3.75;;;2.15;;
19285;SDS011;9776;50.798;6.430;2023-05-07T13:44:44;2.78;;;1.85;;
19285;SDS011;9776;50.798;6.430;2023-05-07T13:47:11;2.22;;;1.90;;
19285;SDS011;9776;50.798;6.430;2023-05-07T13:49:39;3.20;;;2.45;;
19285;SDS011;9776;50.798;6.430;2023-05-07T13:52:07;2.25;;;1.75;;
19285;SDS011;9776;50.798;6.430;2023-05-07T13:54:34;1.98;;;1.63;;
19285;SDS011;9776;50.798;6.430;2023-05-07T13:57:00;1.63;;;1.40;;
19285;SDS011;9776;50.798;6.430;2023-05-07T13:59:27;1.83;;;1.63;;
19285;SDS011;9776;50.798;6.430;2023-05-07T14:01:54;3.00;;;1.80;;
19285;SDS011;9776;50.798;6.430;2023-05-07T14:04:20;2.80;;;1.70;;
19285;SDS011;9776;50.798;6.430;2023-05-07T14:06:47;3.20;;;1.88;;
19285;SDS011;9776;50.798;6.430;2023-05-07T14:09:15;2.10;;;1.60;;
19285;SDS011;9776;50.798;6.430;2023-05-07T14:11:42;3.05;;;2.00;;
19285;SDS011;9776;50.798;6.430;2023-05-07T14:14:08;2.72;;;2.00;;
19285;SDS011;9776;50.798;6.430;2023-05-07T14:16:36;2.53;;;1.40;;
19285;SDS011;9776;50.798;6.430;2023-05-07T14:19:03;1.85;;;1.50;;
19285;SDS011;9776;50.798;6.430;2023-05-07T14:21:29;2.30;;;1.60;;
19285;SDS011;9776;50.798;6.430;2023-05-07T14:23:57;3.20;;;1.50;;
19285;SDS011;9776;50.798;6.430;2023-05-07T14:26:26;2.60;;;1.15;;
19285;SDS011;9776;50.798;6.430;2023-05-07T14:28:53;6.80;;;5.40;;
19285;SDS011;9776;50.798;6.430;2023-05-07T14:31:22;4.15;;;2.80;;
19285;SDS011;9776;50.798;6.430;2023-05-07T14:33:49;3.17;;;1.90;;
19285;SDS011;9776;50.798;6.430;2023-05-07T14:36:15;1.75;;;1.30;;
19285;SDS011;9776;50.798;6.430;2023-05-07T14:38:42;2.08;;;1.52;;
19285;SDS011;9776;50.798;6.430;2023-05-07T14:41:09;4.05;;;2.50;;
19285;SDS011;9776;50.798;6.430;2023-05-07T14:43:37;1.88;;;1.52;;
19285;SDS011;9776;50.798;6.430;2023-05-07T14:46:03;2.40;;;2.00;;
19285;SDS011;9776;50.798;6.430;2023-05-07T14:48:30;2.60;;;2.00;;
19285;SDS011;9776;50.798;6.430;2023-05-07T14:50:57;3.15;;;2.42;;
19285;SDS011;9776;50.798;6.430;2023-05-07T14:53:23;2.97;;;2.00;;
19285;SDS011;9776;50.798;6.430;2023-05-07T14:55:50;4.85;;;1.73;;
19285;SDS011;9776;50.798;6.430;2023-05-07T14:58:17;3.20;;;2.00;;
19285;SDS011;9776;50.798;6.430;2023-05-07T15:00:45;2.72;;;1.63;;
19285;SDS011;9776;50.798;6.430;2023-05-07T15:03:11;3.08;;;1.75;;
19285;SDS011;9776;50.798;6.430;2023-05-07T15:05:38;2.60;;;1.55;;